sensor_id;sensor_type;location;lat;lon;timestamp;P1;durP1;ratioP1;P2;durP2;ratioP2
76377;SDS011;65200;49.500;8.654;2023-03-01T00:01:06;16.08;;;7.93;;
76377;SDS011;65200;49.500;8.654;2023-03-01T00:03:35;10.20;;;6.75;;
76377;SDS011;65200;49.500;8.654;2023-03-01T00:06:01;14.10;;;7.90;;
76377;SDS011;65200;49.500;8.654;2023-03-01T00:08:29;12.45;;;8.02;;
76377;SDS011;65200;49.500;8.654;2023-03-01T00:10:59;13.75;;;8.30;;
76377;SDS011;65200;49.500;8.654;2023-03-01T00:13:26;13.20;;;7.47;;
76377;SDS011;65200;49.500;8.654;2023-03-01T00:15:53;12.35;;;8.13;;
76377;SDS011;65200;49.500;8.654;2023-03-01T00:18:19;14.73;;;8.25;;
76377;SDS011;65200;49.500;8.654;2023-03-01T00:20:50;14.45;;;9.63;;
76377;SDS011;65200;49.500;8.654;2023-03-01T00:23:17;14.50;;;8.07;;
76377;SDS011;65200;49.500;8.654;2023-03-01T00:25:43;14.18;;;7.70;;
76377;SDS011;65200;49.500;8.654;2023-03-01T00:28:10;18.35;;;8.57;;
76377;SDS011;65200;49.500;8.654;2023-03-01T00:30:36;15.60;;;8.18;;
76377;SDS011;65200;49.500;8.654;2023-03-01T00:33:03;14.40;;;7.82;;
76377;SDS011;65200;49.500;8.654;2023-03-01T00:35:29;12.65;;;8.45;;
76377;SDS011;65200;49.500;8.654;2023-03-01T00:37:59;11.43;;;8.85;;
76377;SDS011;65200;49.500;8.654;2023-03-01T00:40:26;21.67;;;9.98;;
76377;SDS011;65200;49.500;8.654;2023-03-01T00:42:53;13.88;;;8.40;;
76377;SDS011;65200;49.500;8.654;2023-03-01T00:45:20;16.45;;;9.40;;
76377;SDS011;65200;49.500;8.654;2023-03-01T00:47:47;15.32;;;9.05;;
76377;SDS011;65200;49.500;8.654;2023-03-01T00:50:14;16.55;;;7.43;;
76377;SDS011;65200;49.500;8.654;2023-03-01T00:52:41;20.17;;;12.20;;
76377;SDS011;65200;49.500;8.654;2023-03-01T00:55:09;14.98;;;8.43;;
76377;SDS011;65200;49.500;8.654;2023-03-01T00:57:36;14.93;;;8.05;;
76377;SDS011;65200;49.500;8.654;2023-03-01T01:00:04;13.75;;;8.38;;
76377;SDS011;65200;49.500;8.654;2023-03-01T01:02:31;15.35;;;8.63;;
76377;SDS011;65200;49.500;8.654;2023-03-01T01:04:58;17.30;;;8.35;;
76377;SDS011;65200;49.500;8.654;2023-03-01T01:07:25;18.98;;;9.65;;
76377;SDS011;65200;49.500;8.654;2023-03-01T01:09:51;14.65;;;8.65;;
76377;SDS011;65200;49.500;8.654;2023-03-01T01:12:19;16.25;;;8.93;;
76377;SDS011;65200;49.500;8.654;2023-03-01T01:14:45;13.60;;;8.52;;
76377;SDS011;65200;49.500;8.654;2023-03-01T01:17:12;17.98;;;10.43;;
76377;SDS011;65200;49.500;8.654;2023-03-01T01:19:38;12.88;;;8.43;;
76377;SDS011;65200;49.500;8.654;2023-03-01T01:22:05;16.00;;;10.20;;
76377;SDS011;65200;49.500;8.654;2023-03-01T01:24:31;16.10;;;11.13;;
76377;SDS011;65200;49.500;8.654;2023-03-01T01:26:57;18.05;;;10.75;;
76377;SDS011;65200;49.500;8.654;2023-03-01T01:29:25;19.00;;;10.65;;
76377;SDS011;65200;49.500;8.654;2023-03-01T01:31:52;19.08;;;10.88;;
76377;SDS011;65200;49.500;8.654;2023-03-01T01:34:19;15.93;;;9.55;;
76377;SDS011;65200;49.500;8.654;2023-03-01T01:36:47;14.80;;;10.57;;
76377;SDS011;65200;49.500;8.654;2023-03-01T01:39:14;16.75;;;9.38;;
76377;SDS011;65200;49.500;8.654;2023-03-01T01:41:41;17.92;;;9.43;;
76377;SDS011;65200;49.500;8.654;2023-03-01T01:44:10;16.23;;;9.50;;
76377;SDS011;65200;49.500;8.654;2023-03-01T01:46:41;16.58;;;9.82;;
76377;SDS011;65200;49.500;8.654;2023-03-01T01:49:15;17.20;;;8.88;;
76377;SDS011;65200;49.500;8.654;2023-03-01T01:51:47;13.88;;;9.05;;
76377;SDS011;65200;49.500;8.654;2023-03-01T01:54:18;15.85;;;8.95;;
76377;SDS011;65200;49.500;8.654;2023-03-01T01:56:48;16.45;;;9.57;;
76377;SDS011;65200;49.500;8.654;2023-03-01T01:59:19;14.75;;;8.35;;
76377;SDS011;65200;49.500;8.654;2023-03-01T02:01:50;13.50;;;8.93;;
76377;SDS011;65200;49.500;8.654;2023-03-01T02:04:17;13.02;;;7.88;;
76377;SDS011;65200;49.500;8.654;2023-03-01T02:06:44;16.02;;;8.90;;
76377;SDS011;65200;49.500;8.654;2023-03-01T02:09:16;14.65;;;9.00;;
76377;SDS011;65200;49.500;8.654;2023-03-01T02:11:44;16.30;;;8.80;;
76377;SDS011;65200;49.500;8.654;2023-03-01T02:14:10;11.30;;;8.00;;
76377;SDS011;65200;49.500;8.654;2023-03-01T02:16:37;12.27;;;8.40;;
76377;SDS011;65200;49.500;8.654;2023-03-01T02:19:05;17.92;;;9.13;;
76377;SDS011;65200;49.500;8.654;2023-03-01T02:21:36;14.35;;;8.65;;
76377;SDS011;65200;49.500;8.654;2023-03-01T02:26:45;12.43;;;7.63;;
76377;SDS011;65200;49.500;8.654;2023-03-01T02:29:16;12.98;;;9.38;;
76377;SDS011;65200;49.500;8.654;2023-03-01T02:31:42;14.00;;;8.52;;
76377;SDS011;65200;49.500;8.654;2023-03-01T02:34:10;13.00;;;9.15;;
76377;SDS011;65200;49.500;8.654;2023-03-01T02:36:40;16.20;;;9.48;;
76377;SDS011;65200;49.500;8.654;2023-03-01T02:39:10;13.02;;;9.05;;
76377;SDS011;65200;49.500;8.654;2023-03-01T02:41:43;17.40;;;9.25;;
76377;SDS011;65200;49.500;8.654;2023-03-01T02:44:12;20.65;;;10.45;;
76377;SDS011;65200;49.500;8.654;2023-03-01T02:46:44;17.20;;;9.18;;
76377;SDS011;65200;49.500;8.654;2023-03-01T02:49:18;12.45;;;9.55;;
76377;SDS011;65200;49.500;8.654;2023-03-01T02:51:48;18.20;;;10.57;;
76377;SDS011;65200;49.500;8.654;2023-03-01T02:54:27;15.55;;;9.50;;
76377;SDS011;65200;49.500;8.654;2023-03-01T02:56:56;11.52;;;7.88;;
76377;SDS011;65200;49.500;8.654;2023-03-01T02:59:24;17.02;;;10.93;;
76377;SDS011;65200;49.500;8.654;2023-03-01T03:01:56;15.88;;;9.57;;
76377;SDS011;65200;49.500;8.654;2023-03-01T03:04:22;15.98;;;9.93;;
76377;SDS011;65200;49.500;8.654;2023-03-01T03:06:49;17.05;;;10.20;;
76377;SDS011;65200;49.500;8.654;2023-03-01T03:09:17;17.10;;;9.95;;
76377;SDS011;65200;49.500;8.654;2023-03-01T03:11:44;19.27;;;10.57;;
76377;SDS011;65200;49.500;8.654;2023-03-01T03:14:11;15.23;;;8.65;;
76377;SDS011;65200;49.500;8.654;2023-03-01T03:16:40;14.27;;;7.75;;
76377;SDS011;65200;49.500;8.654;2023-03-01T03:19:08;16.10;;;10.07;;
76377;SDS011;65200;49.500;8.654;2023-03-01T03:21:35;17.38;;;11.00;;
76377;SDS011;65200;49.500;8.654;2023-03-01T03:24:01;14.02;;;7.88;;
76377;SDS011;65200;49.500;8.654;2023-03-01T03:26:29;16.55;;;9.65;;
76377;SDS011;65200;49.500;8.654;2023-03-01T03:28:56;16.52;;;9.48;;
76377;SDS011;65200;49.500;8.654;2023-03-01T03:31:23;19.83;;;12.10;;
76377;SDS011;65200;49.500;8.654;2023-03-01T03:33:49;19.80;;;10.20;;
76377;SDS011;65200;49.500;8.654;2023-03-01T03:36:17;16.40;;;9.68;;
76377;SDS011;65200;49.500;8.654;2023-03-01T03:38:45;12.43;;;9.45;;
76377;SDS011;65200;49.500;8.654;2023-03-01T03:41:14;16.45;;;9.63;;
76377;SDS011;65200;49.500;8.654;2023-03-01T03:43:41;16.10;;;10.32;;
76377;SDS011;65200;49.500;8.654;2023-03-01T03:46:08;16.98;;;8.70;;
76377;SDS011;65200;49.500;8.654;2023-03-01T03:48:36;16.73;;;9.50;;
76377;SDS011;65200;49.500;8.654;2023-03-01T03:51:04;15.18;;;10.10;;
76377;SDS011;65200;49.500;8.654;2023-03-01T03:53:33;15.15;;;9.23;;
76377;SDS011;65200;49.500;8.654;2023-03-01T03:55:59;20.52;;;10.98;;
76377;SDS011;65200;49.500;8.654;2023-03-01T03:58:26;20.17;;;11.32;;
76377;SDS011;65200;49.500;8.654;2023-03-01T04:00:53;15.13;;;10.48;;
76377;SDS011;65200;49.500;8.654;2023-03-01T04:03:22;20.00;;;11.23;;
76377;SDS011;65200;49.500;8.654;2023-03-01T04:05:49;17.85;;;10.57;;
76377;SDS011;65200;49.500;8.654;2023-03-01T04:08:17;17.05;;;11.27;;
76377;SDS011;65200;49.500;8.654;2023-03-01T04:10:47;19.30;;;12.40;;
76377;SDS011;65200;49.500;8.654;2023-03-01T04:13:16;19.38;;;10.25;;
76377;SDS011;65200;49.500;8.654;2023-03-01T04:15:44;16.83;;;10.07;;
76377;SDS011;65200;49.500;8.654;2023-03-01T04:18:11;16.45;;;9.73;;
76377;SDS011;65200;49.500;8.654;2023-03-01T04:20:39;17.08;;;9.57;;
76377;SDS011;65200;49.500;8.654;2023-03-01T04:23:06;17.13;;;8.98;;
76377;SDS011;65200;49.500;8.654;2023-03-01T04:25:39;15.85;;;9.98;;
76377;SDS011;65200;49.500;8.654;2023-03-01T04:28:08;13.77;;;7.95;;
76377;SDS011;65200;49.500;8.654;2023-03-01T04:33:01;15.45;;;9.10;;
76377;SDS011;65200;49.500;8.654;2023-03-01T04:35:29;14.27;;;8.70;;
76377;SDS011;65200;49.500;8.654;2023-03-01T04:37:56;16.42;;;8.90;;
76377;SDS011;65200;49.500;8.654;2023-03-01T04:40:23;17.80;;;10.63;;
76377;SDS011;65200;49.500;8.654;2023-03-01T04:42:50;20.60;;;10.95;;
76377;SDS011;65200;49.500;8.654;2023-03-01T04:45:18;16.20;;;10.23;;
76377;SDS011;65200;49.500;8.654;2023-03-01T04:47:45;17.08;;;11.10;;
76377;SDS011;65200;49.500;8.654;2023-03-01T04:50:13;15.35;;;11.45;;
76377;SDS011;65200;49.500;8.654;2023-03-01T04:52:41;17.25;;;8.43;;
76377;SDS011;65200;49.500;8.654;2023-03-01T04:55:08;16.33;;;9.25;;
76377;SDS011;65200;49.500;8.654;2023-03-01T04:57:35;18.48;;;10.43;;
76377;SDS011;65200;49.500;8.654;2023-03-01T05:00:02;17.38;;;11.15;;
76377;SDS011;65200;49.500;8.654;2023-03-01T05:02:46;17.52;;;10.15;;
76377;SDS011;65200;49.500;8.654;2023-03-01T05:05:18;19.83;;;10.63;;
76377;SDS011;65200;49.500;8.654;2023-03-01T05:07:50;18.83;;;10.45;;
76377;SDS011;65200;49.500;8.654;2023-03-01T05:10:17;15.00;;;10.15;;
76377;SDS011;65200;49.500;8.654;2023-03-01T05:12:43;18.55;;;11.77;;
76377;SDS011;65200;49.500;8.654;2023-03-01T05:15:11;18.85;;;10.88;;
76377;SDS011;65200;49.500;8.654;2023-03-01T05:17:38;21.48;;;11.93;;
76377;SDS011;65200;49.500;8.654;2023-03-01T05:20:06;20.83;;;10.30;;
76377;SDS011;65200;49.500;8.654;2023-03-01T05:22:35;17.35;;;11.13;;
76377;SDS011;65200;49.500;8.654;2023-03-01T05:25:02;22.73;;;14.35;;
76377;SDS011;65200;49.500;8.654;2023-03-01T05:27:29;17.63;;;11.30;;
76377;SDS011;65200;49.500;8.654;2023-03-01T05:29:56;20.65;;;11.15;;
76377;SDS011;65200;49.500;8.654;2023-03-01T05:32:22;17.85;;;10.95;;
76377;SDS011;65200;49.500;8.654;2023-03-01T05:34:49;19.95;;;11.43;;
76377;SDS011;65200;49.500;8.654;2023-03-01T05:37:18;24.42;;;12.35;;
76377;SDS011;65200;49.500;8.654;2023-03-01T05:39:45;22.60;;;12.07;;
76377;SDS011;65200;49.500;8.654;2023-03-01T05:42:11;21.42;;;14.60;;
76377;SDS011;65200;49.500;8.654;2023-03-01T05:44:38;21.25;;;12.73;;
76377;SDS011;65200;49.500;8.654;2023-03-01T05:47:04;19.90;;;15.55;;
76377;SDS011;65200;49.500;8.654;2023-03-01T05:49:31;20.08;;;11.25;;
76377;SDS011;65200;49.500;8.654;2023-03-01T05:51:57;21.80;;;12.63;;
76377;SDS011;65200;49.500;8.654;2023-03-01T05:54:25;23.92;;;11.18;;
76377;SDS011;65200;49.500;8.654;2023-03-01T05:56:52;21.20;;;11.45;;
76377;SDS011;65200;49.500;8.654;2023-03-01T05:59:18;22.05;;;12.45;;
76377;SDS011;65200;49.500;8.654;2023-03-01T06:01:44;16.98;;;10.43;;
76377;SDS011;65200;49.500;8.654;2023-03-01T06:04:11;20.80;;;11.20;;
76377;SDS011;65200;49.500;8.654;2023-03-01T06:06:37;17.25;;;9.70;;
76377;SDS011;65200;49.500;8.654;2023-03-01T06:09:04;23.15;;;11.60;;
76377;SDS011;65200;49.500;8.654;2023-03-01T06:11:34;21.83;;;11.52;;
76377;SDS011;65200;49.500;8.654;2023-03-01T06:14:01;20.38;;;11.13;;
76377;SDS011;65200;49.500;8.654;2023-03-01T06:16:28;21.33;;;11.68;;
76377;SDS011;65200;49.500;8.654;2023-03-01T06:18:54;23.48;;;11.07;;
76377;SDS011;65200;49.500;8.654;2023-03-01T06:21:21;21.67;;;11.60;;
76377;SDS011;65200;49.500;8.654;2023-03-01T06:23:47;23.77;;;11.63;;
76377;SDS011;65200;49.500;8.654;2023-03-01T06:26:13;20.48;;;11.20;;
76377;SDS011;65200;49.500;8.654;2023-03-01T06:28:41;21.67;;;11.57;;
76377;SDS011;65200;49.500;8.654;2023-03-01T06:31:10;20.40;;;11.65;;
76377;SDS011;65200;49.500;8.654;2023-03-01T06:33:37;21.88;;;11.93;;
76377;SDS011;65200;49.500;8.654;2023-03-01T06:36:04;23.58;;;12.43;;
76377;SDS011;65200;49.500;8.654;2023-03-01T06:38:31;20.95;;;11.75;;
76377;SDS011;65200;49.500;8.654;2023-03-01T06:40:57;20.38;;;10.98;;
76377;SDS011;65200;49.500;8.654;2023-03-01T06:43:24;17.65;;;11.13;;
76377;SDS011;65200;49.500;8.654;2023-03-01T06:45:52;19.70;;;12.68;;
76377;SDS011;65200;49.500;8.654;2023-03-01T06:48:18;20.33;;;12.55;;
76377;SDS011;65200;49.500;8.654;2023-03-01T06:50:44;19.40;;;12.10;;
76377;SDS011;65200;49.500;8.654;2023-03-01T06:53:11;20.80;;;11.63;;
76377;SDS011;65200;49.500;8.654;2023-03-01T06:55:37;16.80;;;10.45;;
76377;SDS011;65200;49.500;8.654;2023-03-01T06:58:04;17.92;;;11.75;;
76377;SDS011;65200;49.500;8.654;2023-03-01T07:00:31;19.92;;;11.52;;
76377;SDS011;65200;49.500;8.654;2023-03-01T07:02:59;22.45;;;11.18;;
76377;SDS011;65200;49.500;8.654;2023-03-01T07:05:27;21.52;;;11.50;;
76377;SDS011;65200;49.500;8.654;2023-03-01T07:07:54;18.70;;;12.02;;
76377;SDS011;65200;49.500;8.654;2023-03-01T07:10:21;21.23;;;12.23;;
76377;SDS011;65200;49.500;8.654;2023-03-01T07:12:48;21.13;;;11.15;;
76377;SDS011;65200;49.500;8.654;2023-03-01T07:15:14;24.42;;;15.27;;
76377;SDS011;65200;49.500;8.654;2023-03-01T07:17:41;21.77;;;12.57;;
76377;SDS011;65200;49.500;8.654;2023-03-01T07:20:11;24.67;;;14.15;;
76377;SDS011;65200;49.500;8.654;2023-03-01T07:25:05;16.35;;;11.32;;
76377;SDS011;65200;49.500;8.654;2023-03-01T07:27:32;20.52;;;12.23;;
76377;SDS011;65200;49.500;8.654;2023-03-01T07:29:59;21.35;;;11.73;;
76377;SDS011;65200;49.500;8.654;2023-03-01T07:32:25;19.70;;;11.77;;
76377;SDS011;65200;49.500;8.654;2023-03-01T07:34:52;17.00;;;11.60;;
76377;SDS011;65200;49.500;8.654;2023-03-01T07:37:20;19.90;;;11.18;;
76377;SDS011;65200;49.500;8.654;2023-03-01T07:39:46;22.75;;;11.35;;
76377;SDS011;65200;49.500;8.654;2023-03-01T07:42:13;16.52;;;10.50;;
76377;SDS011;65200;49.500;8.654;2023-03-01T07:44:39;23.17;;;12.85;;
76377;SDS011;65200;49.500;8.654;2023-03-01T07:47:06;21.95;;;12.70;;
76377;SDS011;65200;49.500;8.654;2023-03-01T07:49:33;21.13;;;11.45;;
76377;SDS011;65200;49.500;8.654;2023-03-01T07:52:00;21.00;;;11.93;;
76377;SDS011;65200;49.500;8.654;2023-03-01T07:54:27;18.70;;;11.30;;
76377;SDS011;65200;49.500;8.654;2023-03-01T07:56:54;19.90;;;12.20;;
76377;SDS011;65200;49.500;8.654;2023-03-01T07:59:22;19.17;;;11.48;;
76377;SDS011;65200;49.500;8.654;2023-03-01T08:01:48;18.17;;;10.50;;
76377;SDS011;65200;49.500;8.654;2023-03-01T08:04:15;15.77;;;10.20;;
76377;SDS011;65200;49.500;8.654;2023-03-01T08:06:41;19.33;;;11.35;;
76377;SDS011;65200;49.500;8.654;2023-03-01T08:09:08;21.40;;;12.27;;
76377;SDS011;65200;49.500;8.654;2023-03-01T08:11:35;19.38;;;11.35;;
76377;SDS011;65200;49.500;8.654;2023-03-01T08:14:02;20.55;;;12.98;;
76377;SDS011;65200;49.500;8.654;2023-03-01T08:16:28;20.45;;;10.98;;
76377;SDS011;65200;49.500;8.654;2023-03-01T08:18:55;19.25;;;10.40;;
76377;SDS011;65200;49.500;8.654;2023-03-01T08:21:25;21.20;;;13.07;;
76377;SDS011;65200;49.500;8.654;2023-03-01T08:23:52;23.65;;;12.52;;
76377;SDS011;65200;49.500;8.654;2023-03-01T08:26:19;22.05;;;12.13;;
76377;SDS011;65200;49.500;8.654;2023-03-01T08:28:48;20.70;;;12.20;;
76377;SDS011;65200;49.500;8.654;2023-03-01T08:33:42;20.65;;;12.93;;
76377;SDS011;65200;49.500;8.654;2023-03-01T08:36:09;20.60;;;12.52;;
76377;SDS011;65200;49.500;8.654;2023-03-01T08:38:36;19.42;;;11.80;;
76377;SDS011;65200;49.500;8.654;2023-03-01T08:41:02;21.17;;;11.95;;
76377;SDS011;65200;49.500;8.654;2023-03-01T08:43:29;19.35;;;11.90;;
76377;SDS011;65200;49.500;8.654;2023-03-01T08:45:58;19.65;;;12.50;;
76377;SDS011;65200;49.500;8.654;2023-03-01T08:48:24;22.08;;;12.85;;
76377;SDS011;65200;49.500;8.654;2023-03-01T08:50:51;19.65;;;12.43;;
76377;SDS011;65200;49.500;8.654;2023-03-01T08:53:17;20.65;;;12.45;;
76377;SDS011;65200;49.500;8.654;2023-03-01T08:55:44;16.80;;;11.30;;
76377;SDS011;65200;49.500;8.654;2023-03-01T08:58:10;21.48;;;12.07;;
76377;SDS011;65200;49.500;8.654;2023-03-01T09:00:36;20.30;;;12.93;;
76377;SDS011;65200;49.500;8.654;2023-03-01T09:03:04;20.98;;;12.93;;
76377;SDS011;65200;49.500;8.654;2023-03-01T09:05:31;24.65;;;12.57;;
76377;SDS011;65200;49.500;8.654;2023-03-01T09:07:58;22.67;;;14.75;;
76377;SDS011;65200;49.500;8.654;2023-03-01T09:10:24;20.48;;;12.32;;
76377;SDS011;65200;49.500;8.654;2023-03-01T09:12:50;23.08;;;13.65;;
76377;SDS011;65200;49.500;8.654;2023-03-01T09:15:17;17.23;;;11.70;;
76377;SDS011;65200;49.500;8.654;2023-03-01T09:17:43;20.88;;;12.75;;
76377;SDS011;65200;49.500;8.654;2023-03-01T09:20:11;19.17;;;12.75;;
76377;SDS011;65200;49.500;8.654;2023-03-01T09:22:38;25.02;;;15.05;;
76377;SDS011;65200;49.500;8.654;2023-03-01T09:25:05;18.70;;;12.23;;
76377;SDS011;65200;49.500;8.654;2023-03-01T09:27:32;19.73;;;11.90;;
76377;SDS011;65200;49.500;8.654;2023-03-01T09:29:58;18.88;;;11.63;;
76377;SDS011;65200;49.500;8.654;2023-03-01T09:32:24;21.70;;;12.40;;
76377;SDS011;65200;49.500;8.654;2023-03-01T09:34:51;20.20;;;12.07;;
76377;SDS011;65200;49.500;8.654;2023-03-01T09:37:31;22.10;;;12.18;;
76377;SDS011;65200;49.500;8.654;2023-03-01T09:39:58;24.83;;;13.40;;
76377;SDS011;65200;49.500;8.654;2023-03-01T09:42:24;17.60;;;11.60;;
76377;SDS011;65200;49.500;8.654;2023-03-01T09:44:53;20.52;;;13.23;;
76377;SDS011;65200;49.500;8.654;2023-03-01T09:47:24;22.63;;;12.98;;
76377;SDS011;65200;49.500;8.654;2023-03-01T09:49:57;18.25;;;11.63;;
76377;SDS011;65200;49.500;8.654;2023-03-01T09:52:30;17.73;;;11.65;;
76377;SDS011;65200;49.500;8.654;2023-03-01T09:55:05;19.40;;;12.05;;
76377;SDS011;65200;49.500;8.654;2023-03-01T09:57:38;22.58;;;12.48;;
76377;SDS011;65200;49.500;8.654;2023-03-01T10:00:20;16.92;;;11.43;;
76377;SDS011;65200;49.500;8.654;2023-03-01T10:02:57;21.88;;;11.95;;
76377;SDS011;65200;49.500;8.654;2023-03-01T10:05:30;23.60;;;14.40;;
76377;SDS011;65200;49.500;8.654;2023-03-01T10:08:06;21.38;;;14.63;;
76377;SDS011;65200;49.500;8.654;2023-03-01T10:10:50;18.85;;;11.25;;
76377;SDS011;65200;49.500;8.654;2023-03-01T10:15:48;17.67;;;11.63;;
76377;SDS011;65200;49.500;8.654;2023-03-01T10:18:20;18.52;;;12.45;;
76377;SDS011;65200;49.500;8.654;2023-03-01T10:20:51;18.48;;;12.30;;
76377;SDS011;65200;49.500;8.654;2023-03-01T10:23:21;23.05;;;14.02;;
76377;SDS011;65200;49.500;8.654;2023-03-01T10:25:53;18.90;;;12.60;;
76377;SDS011;65200;49.500;8.654;2023-03-01T10:28:29;19.95;;;12.38;;
76377;SDS011;65200;49.500;8.654;2023-03-01T10:31:02;21.58;;;14.35;;
76377;SDS011;65200;49.500;8.654;2023-03-01T10:33:30;23.10;;;10.95;;
76377;SDS011;65200;49.500;8.654;2023-03-01T10:35:58;18.95;;;12.40;;
76377;SDS011;65200;49.500;8.654;2023-03-01T10:38:26;19.30;;;12.65;;
76377;SDS011;65200;49.500;8.654;2023-03-01T10:40:57;19.05;;;12.70;;
76377;SDS011;65200;49.500;8.654;2023-03-01T10:43:27;20.45;;;11.88;;
76377;SDS011;65200;49.500;8.654;2023-03-01T10:45:58;20.83;;;12.20;;
76377;SDS011;65200;49.500;8.654;2023-03-01T10:48:25;21.63;;;13.10;;
76377;SDS011;65200;49.500;8.654;2023-03-01T10:51:04;21.63;;;12.80;;
76377;SDS011;65200;49.500;8.654;2023-03-01T10:53:35;19.38;;;11.48;;
76377;SDS011;65200;49.500;8.654;2023-03-01T10:56:04;18.98;;;11.43;;
76377;SDS011;65200;49.500;8.654;2023-03-01T10:58:34;18.48;;;11.48;;
76377;SDS011;65200;49.500;8.654;2023-03-01T11:03:30;17.65;;;11.93;;
76377;SDS011;65200;49.500;8.654;2023-03-01T11:06:00;18.95;;;11.48;;
76377;SDS011;65200;49.500;8.654;2023-03-01T11:08:30;20.10;;;11.70;;
76377;SDS011;65200;49.500;8.654;2023-03-01T11:11:08;19.95;;;12.10;;
76377;SDS011;65200;49.500;8.654;2023-03-01T11:13:50;16.92;;;10.52;;
76377;SDS011;65200;49.500;8.654;2023-03-01T11:16:27;17.80;;;11.45;;
76377;SDS011;65200;49.500;8.654;2023-03-01T11:18:57;19.92;;;12.48;;
76377;SDS011;65200;49.500;8.654;2023-03-01T11:21:39;17.73;;;12.10;;
76377;SDS011;65200;49.500;8.654;2023-03-01T11:24:13;20.33;;;12.02;;
76377;SDS011;65200;49.500;8.654;2023-03-01T11:26:42;18.10;;;11.32;;
76377;SDS011;65200;49.500;8.654;2023-03-01T11:29:12;18.23;;;11.00;;
76377;SDS011;65200;49.500;8.654;2023-03-01T11:31:47;20.05;;;12.85;;
76377;SDS011;65200;49.500;8.654;2023-03-01T11:34:16;23.08;;;12.88;;
76377;SDS011;65200;49.500;8.654;2023-03-01T11:36:48;19.60;;;11.13;;
76377;SDS011;65200;49.500;8.654;2023-03-01T11:39:20;15.23;;;10.60;;
76377;SDS011;65200;49.500;8.654;2023-03-01T11:41:59;17.77;;;11.48;;
76377;SDS011;65200;49.500;8.654;2023-03-01T11:44:33;21.05;;;13.30;;
76377;SDS011;65200;49.500;8.654;2023-03-01T11:47:14;16.40;;;11.52;;
76377;SDS011;65200;49.500;8.654;2023-03-01T11:52:42;16.83;;;11.52;;
76377;SDS011;65200;49.500;8.654;2023-03-01T11:55:22;18.15;;;11.52;;
76377;SDS011;65200;49.500;8.654;2023-03-01T11:58:02;17.42;;;12.27;;
76377;SDS011;65200;49.500;8.654;2023-03-01T12:00:53;24.02;;;13.38;;
76377;SDS011;65200;49.500;8.654;2023-03-01T12:03:29;22.38;;;14.15;;
76377;SDS011;65200;49.500;8.654;2023-03-01T12:09:02;22.52;;;15.02;;
76377;SDS011;65200;49.500;8.654;2023-03-01T12:11:43;21.17;;;13.70;;
76377;SDS011;65200;49.500;8.654;2023-03-01T12:17:33;20.50;;;12.65;;
76377;SDS011;65200;49.500;8.654;2023-03-01T12:20:19;19.52;;;12.85;;
76377;SDS011;65200;49.500;8.654;2023-03-01T12:23:02;17.75;;;12.20;;
76377;SDS011;65200;49.500;8.654;2023-03-01T12:25:48;20.92;;;13.63;;
76377;SDS011;65200;49.500;8.654;2023-03-01T12:28:32;21.42;;;13.38;;
76377;SDS011;65200;49.500;8.654;2023-03-01T12:34:13;21.27;;;12.48;;
76377;SDS011;65200;49.500;8.654;2023-03-01T12:36:54;17.42;;;12.13;;
76377;SDS011;65200;49.500;8.654;2023-03-01T12:39:34;18.65;;;12.63;;
76377;SDS011;65200;49.500;8.654;2023-03-01T12:42:20;19.55;;;13.73;;
76377;SDS011;65200;49.500;8.654;2023-03-01T12:45:16;18.20;;;15.02;;
76377;SDS011;65200;49.500;8.654;2023-03-01T12:48:00;23.02;;;14.15;;
76377;SDS011;65200;49.500;8.654;2023-03-01T12:50:39;19.38;;;14.25;;
76377;SDS011;65200;49.500;8.654;2023-03-01T12:53:13;19.92;;;14.32;;
76377;SDS011;65200;49.500;8.654;2023-03-01T12:55:47;16.20;;;13.63;;
76377;SDS011;65200;49.500;8.654;2023-03-01T12:58:20;19.45;;;14.27;;
76377;SDS011;65200;49.500;8.654;2023-03-01T13:00:59;17.65;;;13.73;;
76377;SDS011;65200;49.500;8.654;2023-03-01T13:03:34;18.35;;;13.60;;
76377;SDS011;65200;49.500;8.654;2023-03-01T13:06:24;17.75;;;13.48;;
76377;SDS011;65200;49.500;8.654;2023-03-01T13:09:03;19.45;;;13.40;;
76377;SDS011;65200;49.500;8.654;2023-03-01T13:11:33;15.80;;;13.20;;
76377;SDS011;65200;49.500;8.654;2023-03-01T13:19:56;19.90;;;13.07;;
76377;SDS011;65200;49.500;8.654;2023-03-01T13:22:27;16.90;;;12.50;;
76377;SDS011;65200;49.500;8.654;2023-03-01T13:25:03;16.38;;;12.20;;
76377;SDS011;65200;49.500;8.654;2023-03-01T13:27:39;22.02;;;14.88;;
76377;SDS011;65200;49.500;8.654;2023-03-01T13:30:12;17.85;;;14.82;;
76377;SDS011;65200;49.500;8.654;2023-03-01T13:36:08;15.23;;;11.45;;
76377;SDS011;65200;49.500;8.654;2023-03-01T13:38:48;19.00;;;14.60;;
76377;SDS011;65200;49.500;8.654;2023-03-01T13:44:20;18.23;;;13.68;;
76377;SDS011;65200;49.500;8.654;2023-03-01T13:46:53;18.52;;;13.98;;
76377;SDS011;65200;49.500;8.654;2023-03-01T13:49:22;16.52;;;14.15;;
76377;SDS011;65200;49.500;8.654;2023-03-01T13:51:52;19.05;;;14.73;;
76377;SDS011;65200;49.500;8.654;2023-03-01T13:54:20;20.23;;;12.75;;
76377;SDS011;65200;49.500;8.654;2023-03-01T13:56:51;16.67;;;11.68;;
76377;SDS011;65200;49.500;8.654;2023-03-01T13:59:19;17.50;;;12.40;;
76377;SDS011;65200;49.500;8.654;2023-03-01T14:01:53;16.95;;;12.05;;
76377;SDS011;65200;49.500;8.654;2023-03-01T14:04:20;17.25;;;12.07;;
76377;SDS011;65200;49.500;8.654;2023-03-01T14:06:49;17.92;;;12.30;;
76377;SDS011;65200;49.500;8.654;2023-03-01T14:09:16;16.25;;;13.02;;
76377;SDS011;65200;49.500;8.654;2023-03-01T14:11:52;14.90;;;11.43;;
76377;SDS011;65200;49.500;8.654;2023-03-01T14:14:32;16.42;;;11.88;;
76377;SDS011;65200;49.500;8.654;2023-03-01T14:17:09;17.88;;;12.85;;
76377;SDS011;65200;49.500;8.654;2023-03-01T14:19:45;17.42;;;12.50;;
76377;SDS011;65200;49.500;8.654;2023-03-01T14:22:16;18.58;;;13.15;;
76377;SDS011;65200;49.500;8.654;2023-03-01T14:24:50;16.65;;;11.80;;
76377;SDS011;65200;49.500;8.654;2023-03-01T14:27:18;20.35;;;12.98;;
76377;SDS011;65200;49.500;8.654;2023-03-01T14:29:53;15.68;;;12.65;;
76377;SDS011;65200;49.500;8.654;2023-03-01T14:32:24;15.57;;;12.45;;
76377;SDS011;65200;49.500;8.654;2023-03-01T14:34:52;17.50;;;12.07;;
76377;SDS011;65200;49.500;8.654;2023-03-01T14:37:20;18.75;;;12.27;;
76377;SDS011;65200;49.500;8.654;2023-03-01T14:39:50;16.70;;;11.55;;
76377;SDS011;65200;49.500;8.654;2023-03-01T14:42:18;17.77;;;13.52;;
76377;SDS011;65200;49.500;8.654;2023-03-01T14:44:47;16.27;;;12.90;;
76377;SDS011;65200;49.500;8.654;2023-03-01T14:47:18;18.52;;;12.13;;
76377;SDS011;65200;49.500;8.654;2023-03-01T14:49:52;15.13;;;11.60;;
76377;SDS011;65200;49.500;8.654;2023-03-01T14:52:23;15.43;;;12.27;;
76377;SDS011;65200;49.500;8.654;2023-03-01T14:54:56;15.80;;;13.13;;
76377;SDS011;65200;49.500;8.654;2023-03-01T14:57:24;16.33;;;12.38;;
76377;SDS011;65200;49.500;8.654;2023-03-01T14:59:52;16.15;;;11.95;;
76377;SDS011;65200;49.500;8.654;2023-03-01T15:02:22;16.67;;;12.88;;
76377;SDS011;65200;49.500;8.654;2023-03-01T15:04:52;16.55;;;12.45;;
76377;SDS011;65200;49.500;8.654;2023-03-01T15:07:21;17.73;;;11.65;;
76377;SDS011;65200;49.500;8.654;2023-03-01T15:09:52;15.75;;;11.02;;
76377;SDS011;65200;49.500;8.654;2023-03-01T15:12:31;15.98;;;10.85;;
76377;SDS011;65200;49.500;8.654;2023-03-01T15:15:18;14.52;;;10.68;;
76377;SDS011;65200;49.500;8.654;2023-03-01T15:17:58;16.10;;;12.02;;